sensor_id;sensor_type;location;lat;lon;timestamp;pressure;altitude;pressure_sealevel;temperature;humidity
13422;BME280;6782;55.904;13.396;2023-01-23T00:00:51;103143.81;;;0.55;100.00
13422;BME280;6782;55.904;13.396;2023-01-23T00:03:38;103139.34;;;0.53;100.00
13422;BME280;6782;55.904;13.396;2023-01-23T00:06:26;103132.28;;;0.50;100.00
13422;BME280;6782;55.904;13.396;2023-01-23T00:09:13;103142.84;;;0.53;100.00
13422;BME280;6782;55.904;13.396;2023-01-23T00:12:00;103149.19;;;0.58;100.00
13422;BME280;6782;55.904;13.396;2023-01-23T00:14:49;103153.72;;;0.62;100.00
13422;BME280;6782;55.904;13.396;2023-01-23T00:17:36;103140.16;;;0.52;100.00
13422;BME280;6782;55.904;13.396;2023-01-23T00:20:25;103135.84;;;0.52;100.00
13422;BME280;6782;55.904;13.396;2023-01-23T00:23:12;103135.91;;;0.54;100.00
13422;BME280;6782;55.904;13.396;2023-01-23T00:26:03;103144.59;;;0.54;100.00
13422;BME280;6782;55.904;13.396;2023-01-23T00:28:51;103143.56;;;0.51;100.00
13422;BME280;6782;55.904;13.396;2023-01-23T00:31:40;103136.66;;;0.51;100.00
13422;BME280;6782;55.904;13.396;2023-01-23T00:34:27;103146.31;;;0.54;100.00
13422;BME280;6782;55.904;13.396;2023-01-23T00:37:15;103151.44;;;0.52;100.00
13422;BME280;6782;55.904;13.396;2023-01-23T00:40:02;103155.91;;;0.55;100.00
13422;BME280;6782;55.904;13.396;2023-01-23T00:42:50;103167.53;;;0.61;100.00
13422;BME280;6782;55.904;13.396;2023-01-23T00:45:37;103165.72;;;0.60;100.00
13422;BME280;6782;55.904;13.396;2023-01-23T00:48:25;103165.72;;;0.60;100.00
13422;BME280;6782;55.904;13.396;2023-01-23T00:51:13;103174.66;;;0.66;100.00
13422;BME280;6782;55.904;13.396;2023-01-23T00:54:00;103171.09;;;0.63;100.00
13422;BME280;6782;55.904;13.396;2023-01-23T00:56:48;103165.91;;;0.63;100.00
13422;BME280;6782;55.904;13.396;2023-01-23T00:59:35;103164.28;;;0.66;100.00
13422;BME280;6782;55.904;13.396;2023-01-23T01:02:22;103171.28;;;0.67;100.00
13422;BME280;6782;55.904;13.396;2023-01-23T01:05:11;103154.69;;;0.64;100.00
13422;BME280;6782;55.904;13.396;2023-01-23T01:07:58;103156.16;;;0.59;100.00
13422;BME280;6782;55.904;13.396;2023-01-23T01:10:45;103158.84;;;0.61;100.00
13422;BME280;6782;55.904;13.396;2023-01-23T01:13:33;103165.09;;;0.64;100.00
13422;BME280;6782;55.904;13.396;2023-01-23T01:16:20;103171.28;;;0.67;100.00
13422;BME280;6782;55.904;13.396;2023-01-23T01:19:08;103166.09;;;0.67;100.00
13422;BME280;6782;55.904;13.396;2023-01-23T01:21:58;103173.69;;;0.63;100.00
13422;BME280;6782;55.904;13.396;2023-01-23T01:24:45;103180.22;;;0.72;100.00
13422;BME280;6782;55.904;13.396;2023-01-23T01:27:33;103181.09;;;0.72;100.00
13422;BME280;6782;55.904;13.396;2023-01-23T01:30:20;103175.16;;;0.75;100.00
13422;BME280;6782;55.904;13.396;2023-01-23T01:33:08;103169.47;;;0.66;100.00
13422;BME280;6782;55.904;13.396;2023-01-23T01:35:56;103159.09;;;0.66;100.00
13422;BME280;6782;55.904;13.396;2023-01-23T01:38:45;103162.34;;;0.61;100.00
13422;BME280;6782;55.904;13.396;2023-01-23T01:41:33;103164.09;;;0.62;100.00
13422;BME280;6782;55.904;13.396;2023-01-23T01:44:22;103163.31;;;0.63;100.00
13422;BME280;6782;55.904;13.396;2023-01-23T01:47:10;103165.91;;;0.63;100.00
13422;BME280;6782;55.904;13.396;2023-01-23T01:50:03;103176.78;;;0.73;100.00
13422;BME280;6782;55.904;13.396;2023-01-23T01:52:51;103168.41;;;0.62;100.00
13422;BME280;6782;55.904;13.396;2023-01-23T01:55:41;103176.47;;;0.67;100.00
13422;BME280;6782;55.904;13.396;2023-01-23T01:58:29;103181.50;;;0.63;100.00
13422;BME280;6782;55.904;13.396;2023-01-23T02:01:17;103193.03;;;0.69;100.00
13422;BME280;6782;55.904;13.396;2023-01-23T02:04:05;103189.91;;;0.59;100.00
13422;BME280;6782;55.904;13.396;2023-01-23T02:06:54;103199.41;;;0.59;100.00
13422;BME280;6782;55.904;13.396;2023-01-23T02:09:42;103202.25;;;0.63;100.00
13422;BME280;6782;55.904;13.396;2023-01-23T02:12:32;103212.84;;;0.67;100.00
13422;BME280;6782;55.904;13.396;2023-01-23T02:15:21;103209.09;;;0.61;100.00
13422;BME280;6782;55.904;13.396;2023-01-23T02:18:08;103209.09;;;0.61;100.00
13422;BME280;6782;55.904;13.396;2023-01-23T02:20:58;103213.63;;;0.66;100.00
13422;BME280;6782;55.904;13.396;2023-01-23T02:24:08;103215.88;;;0.59;100.00
13422;BME280;6782;55.904;13.396;2023-01-23T02:27:00;103211.41;;;0.57;100.00
13422;BME280;6782;55.904;13.396;2023-01-23T02:29:47;103224.09;;;0.67;100.00
13422;BME280;6782;55.904;13.396;2023-01-23T02:32:36;103224.66;;;0.61;100.00
13422;BME280;6782;55.904;13.396;2023-01-23T02:35:26;103221.88;;;0.58;100.00
13422;BME280;6782;55.904;13.396;2023-01-23T02:38:16;103221.34;;;0.49;100.00
13422;BME280;6782;55.904;13.396;2023-01-23T02:41:08;103231.97;;;0.54;100.00
13422;BME280;6782;55.904;13.396;2023-01-23T02:44:02;103232.72;;;0.51;100.00
13422;BME280;6782;55.904;13.396;2023-01-23T02:46:51;103233.59;;;0.52;100.00
13422;BME280;6782;55.904;13.396;2023-01-23T02:49:38;103245.88;;;0.54;100.00
13422;BME280;6782;55.904;13.396;2023-01-23T02:52:27;103246.78;;;0.55;100.00
13422;BME280;6782;55.904;13.396;2023-01-23T02:55:16;103237.28;;;0.55;100.00
13422;BME280;6782;55.904;13.396;2023-01-23T02:58:04;103236.50;;;0.56;100.00
13422;BME280;6782;55.904;13.396;2023-01-23T03:01:07;103241.41;;;0.52;100.00
13422;BME280;6782;55.904;13.396;2023-01-23T03:03:55;103240.34;;;0.48;100.00
13422;BME280;6782;55.904;13.396;2023-01-23T03:06:42;103238.78;;;0.52;100.00
13422;BME280;6782;55.904;13.396;2023-01-23T03:09:29;103234.50;;;0.52;100.00
13422;BME280;6782;55.904;13.396;2023-01-23T03:12:17;103234.50;;;0.52;100.00
13422;BME280;6782;55.904;13.396;2023-01-23T03:15:05;103224.84;;;0.50;100.00
13422;BME280;6782;55.904;13.396;2023-01-23T03:17:54;103223.94;;;0.49;100.00
13422;BME280;6782;55.904;13.396;2023-01-23T03:20:41;103224.91;;;0.51;100.00
13422;BME280;6782;55.904;13.396;2023-01-23T03:23:29;103227.69;;;0.54;100.00
13422;BME280;6782;55.904;13.396;2023-01-23T03:26:16;103229.31;;;0.52;100.00
13422;BME280;6782;55.904;13.396;2023-01-23T03:29:04;103239.09;;;0.56;100.00
13422;BME280;6782;55.904;13.396;2023-01-23T03:32:05;103241.03;;;0.60;100.00
13422;BME280;6782;55.904;13.396;2023-01-23T03:34:54;103251.94;;;0.70;100.00
13422;BME280;6782;55.904;13.396;2023-01-23T03:37:41;103258.81;;;0.84;100.00
13422;BME280;6782;55.904;13.396;2023-01-23T03:40:28;103248.41;;;0.84;100.00
13422;BME280;6782;55.904;13.396;2023-01-23T03:43:33;103230.16;;;0.82;100.00
13422;BME280;6782;55.904;13.396;2023-01-23T03:46:20;103226.66;;;0.82;100.00
13422;BME280;6782;55.904;13.396;2023-01-23T03:49:07;103212.06;;;0.84;100.00
13422;BME280;6782;55.904;13.396;2023-01-23T03:51:56;103204.25;;;0.84;100.00
13422;BME280;6782;55.904;13.396;2023-01-23T03:54:43;103191.09;;;0.81;100.00
13422;BME280;6782;55.904;13.396;2023-01-23T03:57:30;103185.56;;;0.75;100.00
13422;BME280;6782;55.904;13.396;2023-01-23T04:00:18;103181.97;;;0.73;100.00
13422;BME280;6782;55.904;13.396;2023-01-23T04:03:05;103173.41;;;0.74;100.00
13422;BME280;6782;55.904;13.396;2023-01-23T04:05:54;103175.88;;;0.72;100.00
13422;BME280;6782;55.904;13.396;2023-01-23T04:08:44;103174.84;;;0.69;100.00
13422;BME280;6782;55.904;13.396;2023-01-23T04:11:31;103164.28;;;0.66;100.00
13422;BME280;6782;55.904;13.396;2023-01-23T04:14:18;103170.44;;;0.68;100.00
13422;BME280;6782;55.904;13.396;2023-01-23T04:17:06;103171.09;;;0.63;100.00
13422;BME280;6782;55.904;13.396;2023-01-23T04:19:53;103185.56;;;0.75;100.00
13422;BME280;6782;55.904;13.396;2023-01-23T04:22:41;103185.56;;;0.75;100.00
13422;BME280;6782;55.904;13.396;2023-01-23T04:25:29;103184.25;;;0.67;100.00
13422;BME280;6782;55.904;13.396;2023-01-23T04:28:17;103185.41;;;0.72;100.00
13422;BME280;6782;55.904;13.396;2023-01-23T04:31:04;103178.59;;;0.74;100.00
13422;BME280;6782;55.904;13.396;2023-01-23T04:33:53;103180.03;;;0.69;100.00
13422;BME280;6782;55.904;13.396;2023-01-23T04:36:41;103183.63;;;0.71;100.00
13422;BME280;6782;55.904;13.396;2023-01-23T04:39:28;103194.03;;;0.87;100.00
13422;BME280;6782;55.904;13.396;2023-01-23T04:42:18;103167.53;;;0.78;100.00
13422;BME280;6782;55.904;13.396;2023-01-23T04:45:06;103150.50;;;0.67;100.00
13422;BME280;6782;55.904;13.396;2023-01-23T04:47:53;103143.25;;;0.61;100.00
13422;BME280;6782;55.904;13.396;2023-01-23T04:50:41;103143.81;;;0.55;100.00
13422;BME280;6782;55.904;13.396;2023-01-23T04:53:28;103157.16;;;0.61;100.00
13422;BME280;6782;55.904;13.396;2023-01-23T04:56:15;103162.16;;;0.58;100.00
13422;BME280;6782;55.904;13.396;2023-01-23T04:59:04;103190.03;;;0.77;100.00
13422;BME280;6782;55.904;13.396;2023-01-23T05:01:51;103175.31;;;0.61;100.00
13422;BME280;6782;55.904;13.396;2023-01-23T05:04:39;103165.22;;;0.51;100.00
13422;BME280;6782;55.904;13.396;2023-01-23T05:07:26;103177.94;;;0.61;100.00
13422;BME280;6782;55.904;13.396;2023-01-23T05:10:14;103197.03;;;0.78;100.00
13422;BME280;6782;55.904;13.396;2023-01-23T05:13:02;103194.19;;;0.74;100.00
13422;BME280;6782;55.904;13.396;2023-01-23T05:15:51;103199.69;;;0.80;100.00
13422;BME280;6782;55.904;13.396;2023-01-23T05:18:39;103190.94;;;0.78;100.00
13422;BME280;6782;55.904;13.396;2023-01-23T05:21:27;103181.50;;;0.63;100.00
13422;BME280;6782;55.904;13.396;2023-01-23T05:24:14;103196.41;;;0.68;100.00
13422;BME280;6782;55.904;13.396;2023-01-23T05:27:02;103215.81;;;0.89;100.00
13422;BME280;6782;55.904;13.396;2023-01-23T05:29:49;103230.09;;;0.97;100.00
13422;BME280;6782;55.904;13.396;2023-01-23T05:32:38;103218.88;;;0.82;100.00
13422;BME280;6782;55.904;13.396;2023-01-23T05:35:26;103237.59;;;1.07;100.00
13422;BME280;6782;55.904;13.396;2023-01-23T05:38:13;103215.28;;;0.80;100.00
13422;BME280;6782;55.904;13.396;2023-01-23T05:41:01;103222.44;;;0.84;100.00
13422;BME280;6782;55.904;13.396;2023-01-23T05:43:48;103199.25;;;0.56;100.00
13422;BME280;6782;55.904;13.396;2023-01-23T05:46:36;103209.63;;;0.56;100.00
13422;BME280;6782;55.904;13.396;2023-01-23T05:49:24;103217.50;;;0.57;100.00
13422;BME280;6782;55.904;13.396;2023-01-23T05:52:11;103231.97;;;0.69;100.00
13422;BME280;6782;55.904;13.396;2023-01-23T05:54:59;103233.31;;;0.77;100.00
13422;BME280;6782;55.904;13.396;2023-01-23T05:57:47;103226.09;;;0.56;100.00
13422;BME280;6782;55.904;13.396;2023-01-23T06:00:34;103231.13;;;0.53;100.00
13422;BME280;6782;55.904;13.396;2023-01-23T06:03:22;103230.94;;;0.50;100.00
13422;BME280;6782;55.904;13.396;2023-01-23T06:06:11;103237.03;;;0.51;100.00
13422;BME280;6782;55.904;13.396;2023-01-23T06:08:58;103252.16;;;0.58;100.00
13422;BME280;6782;55.904;13.396;2023-01-23T06:11:46;103264.59;;;0.63;100.00
13422;BME280;6782;55.904;13.396;2023-01-23T06:14:34;103259.41;;;0.63;100.00
13422;BME280;6782;55.904;13.396;2023-01-23T06:17:21;103252.06;;;0.56;100.00
13422;BME280;6782;55.904;13.396;2023-01-23T06:20:09;103253.47;;;0.51;100.00
13422;BME280;6782;55.904;13.396;2023-01-23T06:22:59;103300.00;;;0.78;100.00
13422;BME280;6782;55.904;13.396;2023-01-23T06:25:46;103288.94;;;0.66;100.00
13422;BME280;6782;55.904;13.396;2023-01-23T06:28:33;103293.47;;;0.70;100.00
13422;BME280;6782;55.904;13.396;2023-01-23T06:31:20;103285.34;;;0.63;100.00
13422;BME280;6782;55.904;13.396;2023-01-23T06:34:08;103304.69;;;0.69;100.00
13422;BME280;6782;55.904;13.396;2023-01-23T06:36:55;103295.75;;;0.63;100.00
13422;BME280;6782;55.904;13.396;2023-01-23T06:39:44;103304.50;;;0.66;100.00
13422;BME280;6782;55.904;13.396;2023-01-23T06:42:31;103318.31;;;0.79;100.00
13422;BME280;6782;55.904;13.396;2023-01-23T06:45:18;103309.34;;;0.59;100.00
13422;BME280;6782;55.904;13.396;2023-01-23T06:48:06;103314.19;;;0.53;100.00
13422;BME280;6782;55.904;13.396;2023-01-23T06:50:53;103342.09;;;0.72;100.00
13422;BME280;6782;55.904;13.396;2023-01-23T06:53:40;103333.72;;;0.61;100.00
13422;BME280;6782;55.904;13.396;2023-01-23T06:56:28;103342.50;;;0.63;100.00
13422;BME280;6782;55.904;13.396;2023-01-23T06:59:15;103349.31;;;0.61;100.00
13422;BME280;6782;55.904;13.396;2023-01-23T07:02:02;103357.09;;;0.61;100.00
13422;BME280;6782;55.904;13.396;2023-01-23T07:04:50;103346.78;;;0.48;100.00
13422;BME280;6782;55.904;13.396;2023-01-23T07:07:37;103353.03;;;0.52;100.00
13422;BME280;6782;55.904;13.396;2023-01-23T07:10:24;103357.50;;;0.54;100.00
13422;BME280;6782;55.904;13.396;2023-01-23T07:13:13;103359.66;;;0.47;100.00
13422;BME280;6782;55.904;13.396;2023-01-23T07:16:00;103374.34;;;0.46;100.00
13422;BME280;6782;55.904;13.396;2023-01-23T07:18:47;103378.09;;;0.51;100.00
13422;BME280;6782;55.904;13.396;2023-01-23T07:21:35;103388.31;;;0.48;100.00
13422;BME280;6782;55.904;13.396;2023-01-23T07:24:22;103416.44;;;0.70;100.00
13422;BME280;6782;55.904;13.396;2023-01-23T07:27:09;103422.53;;;0.71;100.00
13422;BME280;6782;55.904;13.396;2023-01-23T07:29:57;103415.53;;;0.70;100.00
13422;BME280;6782;55.904;13.396;2023-01-23T07:32:44;103424.63;;;0.76;100.00
13422;BME280;6782;55.904;13.396;2023-01-23T07:35:31;103407.94;;;0.58;100.00
13422;BME280;6782;55.904;13.396;2023-01-23T07:38:19;103409.09;;;0.48;100.00
13422;BME280;6782;55.904;13.396;2023-01-23T07:41:08;103417.69;;;0.47;100.00
13422;BME280;6782;55.904;13.396;2023-01-23T07:43:55;103428.06;;;0.47;100.00
13422;BME280;6782;55.904;13.396;2023-01-23T07:46:44;103429.88;;;0.48;100.00
13422;BME280;6782;55.904;13.396;2023-01-23T07:49:31;103453.72;;;0.71;100.00
13422;BME280;6782;55.904;13.396;2023-01-23T07:52:18;103454.09;;;0.77;100.00
13422;BME280;6782;55.904;13.396;2023-01-23T07:55:06;103434.50;;;0.54;100.00
13422;BME280;6782;55.904;13.396;2023-01-23T07:57:55;103444.22;;;0.56;100.00
13422;BME280;6782;55.904;13.396;2023-01-23T08:00:43;103474.88;;;0.77;100.00
13422;BME280;6782;55.904;13.396;2023-01-23T08:03:32;103473.78;;;0.88;100.00
13422;BME280;6782;55.904;13.396;2023-01-23T08:06:19;103464.47;;;0.77;100.00
13422;BME280;6782;55.904;13.396;2023-01-23T08:09:07;103455.31;;;0.69;100.00
13422;BME280;6782;55.904;13.396;2023-01-23T08:11:54;103451.91;;;0.70;100.00
13422;BME280;6782;55.904;13.396;2023-01-23T08:14:41;103455.50;;;0.72;100.00
13422;BME280;6782;55.904;13.396;2023-01-23T08:17:29;103453.97;;;0.75;100.00
13422;BME280;6782;55.904;13.396;2023-01-23T08:20:17;103472.34;;;0.93;100.00
13422;BME280;6782;55.904;13.396;2023-01-23T08:23:04;103472.91;;;1.02;100.00
13422;BME280;6782;55.904;13.396;2023-01-23T08:25:52;103488.69;;;1.05;100.00
13422;BME280;6782;55.904;13.396;2023-01-23T08:28:40;103460.63;;;0.85;100.00
13422;BME280;6782;55.904;13.396;2023-01-23T08:31:28;103457.47;;;0.76;100.00
13422;BME280;6782;55.904;13.396;2023-01-23T08:34:15;103453.53;;;0.68;100.00
13422;BME280;6782;55.904;13.396;2023-01-23T08:37:03;103490.84;;;0.97;100.00
13422;BME280;6782;55.904;13.396;2023-01-23T08:39:50;103480.25;;;0.94;100.00
13422;BME280;6782;55.904;13.396;2023-01-23T08:42:38;103468.78;;;0.76;100.00
13422;BME280;6782;55.904;13.396;2023-01-23T08:45:25;103487.78;;;0.90;100.00
13422;BME280;6782;55.904;13.396;2023-01-23T08:48:12;103475.59;;;0.89;100.00
13422;BME280;6782;55.904;13.396;2023-01-23T08:51:01;103454.63;;;0.86;100.00
13422;BME280;6782;55.904;13.396;2023-01-23T08:53:52;103447.47;;;0.82;100.00
13422;BME280;6782;55.904;13.396;2023-01-23T08:56:39;103438.50;;;0.77;100.00
13422;BME280;6782;55.904;13.396;2023-01-23T08:59:27;103451.56;;;0.93;100.00
13422;BME280;6782;55.904;13.396;2023-01-23T09:02:14;103440.66;;;0.84;100.00
13422;BME280;6782;55.904;13.396;2023-01-23T09:05:01;103423.06;;;0.80;100.00
13422;BME280;6782;55.904;13.396;2023-01-23T09:07:49;103416.91;;;0.78;100.00
13422;BME280;6782;55.904;13.396;2023-01-23T09:10:38;103410.91;;;0.79;100.00
13422;BME280;6782;55.904;13.396;2023-01-23T09:13:25;103416.28;;;0.82;100.00
13422;BME280;6782;55.904;13.396;2023-01-23T09:16:12;103400.34;;;0.76;100.00
13422;BME280;6782;55.904;13.396;2023-01-23T09:18:59;103394.88;;;0.71;100.00
13422;BME280;6782;55.904;13.396;2023-01-23T09:21:47;103397.91;;;0.79;100.00
13422;BME280;6782;55.904;13.396;2023-01-23T09:24:34;103415.38;;;0.96;100.00
13422;BME280;6782;55.904;13.396;2023-01-23T09:27:23;103406.78;;;0.97;100.00
13422;BME280;6782;55.904;13.396;2023-01-23T09:30:11;103410.09;;;1.09;100.00
13422;BME280;6782;55.904;13.396;2023-01-23T09:32:58;103406.41;;;1.20;100.00
13422;BME280;6782;55.904;13.396;2023-01-23T09:35:50;103397.97;;;1.24;100.00
13422;BME280;6782;55.904;13.396;2023-01-23T09:38:37;103389.84;;;1.18;100.00
13422;BME280;6782;55.904;13.396;2023-01-23T09:41:26;103358.91;;;1.08;100.00
13422;BME280;6782;55.904;13.396;2023-01-23T09:44:20;103350.06;;;1.04;100.00
13422;BME280;6782;55.904;13.396;2023-01-23T09:47:12;103341.38;;;1.04;100.00
13422;BME280;6782;55.904;13.396;2023-01-23T09:50:04;103349.91;;;1.32;100.00
13422;BME280;6782;55.904;13.396;2023-01-23T09:52:58;103362.66;;;1.58;100.00
13422;BME280;6782;55.904;13.396;2023-01-23T09:55:49;103292.78;;;1.03;100.00
13422;BME280;6782;55.904;13.396;2023-01-23T09:58:43;103308.25;;;1.16;100.00
13422;BME280;6782;55.904;13.396;2023-01-23T10:01:35;103317.06;;;1.34;100.00
13422;BME280;6782;55.904;13.396;2023-01-23T10:04:23;103296.28;;;1.34;100.00
13422;BME280;6782;55.904;13.396;2023-01-23T10:07:28;103266.88;;;1.35;100.00
13422;BME280;6782;55.904;13.396;2023-01-23T10:10:43;103229.16;;;1.11;100.00
13422;BME280;6782;55.904;13.396;2023-01-23T10:17:03;103232.88;;;1.16;100.00
13422;BME280;6782;55.904;13.396;2023-01-23T10:20:13;103230.56;;;1.20;100.00
13422;BME280;6782;55.904;13.396;2023-01-23T10:23:11;103228.38;;;1.28;100.00
13422;BME280;6782;55.904;13.396;2023-01-23T10:26:03;103231.44;;;1.37;100.00
13422;BME280;6782;55.904;13.396;2023-01-23T10:28:53;103198.66;;;1.23;100.00
13422;BME280;6782;55.904;13.396;2023-01-23T10:31:46;103192.59;;;1.08;100.00
13422;BME280;6782;55.904;13.396;2023-01-23T10:34:42;103189.19;;;1.09;100.00
13422;BME280;6782;55.904;13.396;2023-01-23T10:37:41;103205.63;;;1.24;100.00
13422;BME280;6782;55.904;13.396;2023-01-23T10:40:32;103215.06;;;1.38;100.00
13422;BME280;6782;55.904;13.396;2023-01-23T10:43:33;103214.06;;;1.52;100.00
13422;BME280;6782;55.904;13.396;2023-01-23T10:46:28;103217.06;;;1.60;100.00
13422;BME280;6782;55.904;13.396;2023-01-23T10:49:27;103167.47;;;1.23;100.00
13422;BME280;6782;55.904;13.396;2023-01-23T10:52:31;103163.00;;;1.20;100.00
13422;BME280;6782;55.904;13.396;2023-01-23T10:55:28;103165.16;;;1.29;100.00
13422;BME280;6782;55.904;13.396;2023-01-23T10:58:27;103140.31;;;1.18;100.00
13422;BME280;6782;55.904;13.396;2023-01-23T11:01:24;103181.09;;;1.51;100.00
13422;BME280;6782;55.904;13.396;2023-01-23T11:04:18;103165.50;;;1.51;100.00
13422;BME280;6782;55.904;13.396;2023-01-23T11:07:11;103151.50;;;1.49;100.00
13422;BME280;6782;55.904;13.396;2023-01-23T11:10:13;103133.63;;;1.39;100.00
13422;BME280;6782;55.904;13.396;2023-01-23T11:13:02;103154.19;;;1.51;100.00
13422;BME280;6782;55.904;13.396;2023-01-23T11:15:49;103178.72;;;1.72;100.00
13422;BME280;6782;55.904;13.396;2023-01-23T11:18:39;103148.09;;;1.50;100.00
13422;BME280;6782;55.904;13.396;2023-01-23T11:21:29;103143.34;;;1.59;100.00
13422;BME280;6782;55.904;13.396;2023-01-23T11:24:20;103123.72;;;1.48;100.00
13422;BME280;6782;55.904;13.396;2023-01-23T11:27:26;103168.75;;;1.81;100.00
13422;BME280;6782;55.904;13.396;2023-01-23T11:30:33;103165.41;;;1.83;100.00
13422;BME280;6782;55.904;13.396;2023-01-23T11:33:35;103136.69;;;1.64;100.00
13422;BME280;6782;55.904;13.396;2023-01-23T11:36:36;103112.75;;;1.54;100.00
13422;BME280;6782;55.904;13.396;2023-01-23T11:39:44;103139.81;;;1.75;100.00
13422;BME280;6782;55.904;13.396;2023-01-23T11:42:38;103112.28;;;1.62;100.00
13422;BME280;6782;55.904;13.396;2023-01-23T11:45:39;103097.72;;;1.48;100.00
13422;BME280;6782;55.904;13.396;2023-01-23T11:48:45;103102.97;;;1.50;100.00
13422;BME280;6782;55.904;13.396;2023-01-23T11:51:42;103101.94;;;1.46;100.00
13422;BME280;6782;55.904;13.396;2023-01-23T11:54:43;103093.25;;;1.46;100.00
13422;BME280;6782;55.904;13.396;2023-01-23T11:57:51;103101.28;;;1.50;100.00
13422;BME280;6782;55.904;13.396;2023-01-23T12:00:45;103130.03;;;1.69;100.00
13422;BME280;6782;55.904;13.396;2023-01-23T12:07:11;103085.50;;;1.63;100.00
13422;BME280;6782;55.904;13.396;2023-01-23T12:10:09;103065.78;;;1.51;100.00
13422;BME280;6782;55.904;13.396;2023-01-23T12:13:14;103072.00;;;1.54;100.00
13422;BME280;6782;55.904;13.396;2023-01-23T12:16:18;103119.88;;;1.92;100.00
13422;BME280;6782;55.904;13.396;2023-01-23T12:19:15;103094.66;;;1.90;100.00
13422;BME280;6782;55.904;13.396;2023-01-23T12:22:10;103082.63;;;1.93;100.00
13422;BME280;6782;55.904;13.396;2023-01-23T12:25:13;103043.06;;;1.64;100.00
13422;BME280;6782;55.904;13.396;2023-01-23T12:28:20;103034.78;;;1.55;100.00
13422;BME280;6782;55.904;13.396;2023-01-23T12:31:19;103033.50;;;1.47;100.00
13422;BME280;6782;55.904;13.396;2023-01-23T12:34:23;103062.06;;;1.63;100.00
13422;BME280;6782;55.904;13.396;2023-01-23T12:37:24;103102.69;;;1.95;100.00
13422;BME280;6782;55.904;13.396;2023-01-23T12:40:21;103094.81;;;1.94;100.00
13422;BME280;6782;55.904;13.396;2023-01-23T12:43:17;103127.41;;;2.21;100.00
13422;BME280;6782;55.904;13.396;2023-01-23T12:46:10;103099.41;;;2.17;100.00
13422;BME280;6782;55.904;13.396;2023-01-23T12:49:08;103065.44;;;1.96;100.00
13422;BME280;6782;55.904;13.396;2023-01-23T12:52:00;103072.34;;;1.96;100.00
13422;BME280;6782;55.904;13.396;2023-01-23T12:54:52;103058.00;;;1.86;100.00
13422;BME280;6782;55.904;13.396;2023-01-23T12:57:43;103086.34;;;2.15;100.00
13422;BME280;6782;55.904;13.396;2023-01-23T13:00:59;103110.56;;;2.32;100.00
13422;BME280;6782;55.904;13.396;2023-01-23T13:04:18;103089.31;;;2.23;100.00
13422;BME280;6782;55.904;13.396;2023-01-23T13:07:20;103079.28;;;2.13;100.00
13422;BME280;6782;55.904;13.396;2023-01-23T13:10:41;103045.44;;;2.13;100.00
13422;BME280;6782;55.904;13.396;2023-01-23T13:13:49;103054.84;;;2.11;100.00
13422;BME280;6782;55.904;13.396;2023-01-23T13:16:44;103018.06;;;1.85;100.00
13422;BME280;6782;55.904;13.396;2023-01-23T13:19:39;103030.50;;;1.91;100.00
13422;BME280;6782;55.904;13.396;2023-01-23T13:22:45;103018.59;;;1.78;100.00
13422;BME280;6782;55.904;13.396;2023-01-23T13:25:32;103037.41;;;1.90;100.00
13422;BME280;6782;55.904;13.396;2023-01-23T13:28:32;103031.59;;;1.96;100.00
13422;BME280;6782;55.904;13.396;2023-01-23T13:31:26;103035.78;;;1.93;100.00
13422;BME280;6782;55.904;13.396;2023-01-23T13:34:36;103061.91;;;2.13;100.00
13422;BME280;6782;55.904;13.396;2023-01-23T13:40:35;103057.47;;;2.11;100.00
13422;BME280;6782;55.904;13.396;2023-01-23T13:43:41;103062.38;;;2.22;100.00
13422;BME280;6782;55.904;13.396;2023-01-23T13:46:36;102984.25;;;1.85;100.00
13422;BME280;6782;55.904;13.396;2023-01-23T13:49:37;102967.38;;;1.77;100.00
13422;BME280;6782;55.904;13.396;2023-01-23T13:52:38;102987.53;;;1.99;100.00
13422;BME280;6782;55.904;13.396;2023-01-23T13:55:45;102988.03;;;2.10;100.00
13422;BME280;6782;55.904;13.396;2023-01-23T13:58:50;102942.78;;;1.88;100.00
13422;BME280;6782;55.904;13.396;2023-01-23T14:01:44;102925.75;;;1.77;100.00
13422;BME280;6782;55.904;13.396;2023-01-23T14:04:59;102942.53;;;2.02;100.00
13422;BME280;6782;55.904;13.396;2023-01-23T14:08:00;102930.78;;;2.10;100.00
13422;BME280;6782;55.904;13.396;2023-01-23T14:10:48;102909.50;;;2.01;100.00
13422;BME280;6782;55.904;13.396;2023-01-23T14:13:36;102897.47;;;2.03;100.00
13422;BME280;6782;55.904;13.396;2023-01-23T14:16:23;102920.63;;;2.16;100.00
13422;BME280;6782;55.904;13.396;2023-01-23T14:19:21;102894.59;;;2.16;100.00
13422;BME280;6782;55.904;13.396;2023-01-23T14:22:11;102862.81;;;2.04;100.00
13422;BME280;6782;55.904;13.396;2023-01-23T14:24:58;102856.09;;;1.89;100.00
13422;BME280;6782;55.904;13.396;2023-01-23T14:27:46;102839.41;;;1.84;100.00
13422;BME280;6782;55.904;13.396;2023-01-23T14:30:33;102834.06;;;1.81;100.00
13422;BME280;6782;55.904;13.396;2023-01-23T14:33:21;102839.31;;;1.83;100.00
13422;BME280;6782;55.904;13.396;2023-01-23T14:36:14;102851.16;;;1.76;100.00
13422;BME280;6782;55.904;13.396;2023-01-23T14:39:04;102863.34;;;1.77;100.00
13422;BME280;6782;55.904;13.396;2023-01-23T14:41:53;102861.44;;;1.73;100.00
13422;BME280;6782;55.904;13.396;2023-01-23T14:44:44;102872.63;;;1.72;100.00
13422;BME280;6782;55.904;13.396;2023-01-23T14:47:35;102876.72;;;1.67;100.00
13422;BME280;6782;55.904;13.396;2023-01-23T14:50:26;102886.19;;;1.65;100.00
13422;BME280;6782;55.904;13.396;2023-01-23T14:53:15;102915.50;;;1.80;100.00
13422;BME280;6782;55.904;13.396;2023-01-23T14:56:06;102883.44;;;1.62;100.00
13422;BME280;6782;55.904;13.396;2023-01-23T14:58:56;102911.53;;;1.69;100.00
13422;BME280;6782;55.904;13.396;2023-01-23T15:01:52;102939.59;;;1.76;100.00
13422;BME280;6782;55.904;13.396;2023-01-23T15:04:40;102954.63;;;1.82;100.00